Terminal Aerodrome Forecast
Issued by NWS Buffalo, NY

Home | Current Version | Previous Version | Text Only | Print | Product List | Glossary On
Versions: 1 2 3 4 5 6 7 8 9 10 11 12 13 14 15 16 17 18 19 20 21 22 23 24
000
FTUS41 KBUF 261403 AAA
TAFBUF
TAF AMD
KBUF 261403Z 2614/2712 07005KT P6SM OVC025
     FM261600 VRB04KT P6SM SCT025 BKN040
     FM261900 10004KT P6SM BKN040
     FM262100 10004KT P6SM SCT045
     FM262300 10004KT P6SM FEW200
     FM270500 15007KT P6SM FEW250=

USA.gov is the U.S. government's official web portal to all federal, state and local government web resources and services.